Time;durP1;ratioP1;P1;durP2;ratioP2;P2;SDS_P1;SDS_P2;PMS_P1;PMS_P2;Temp;Humidity;BMP_temperature;BMP_pressure;BME280_temperature;BME280_humidity;BME280_pressure;Samples;Min_cycle;Max_cycle;Signal;HPM_P1;HPM_P2
2021/12/13 00:00:37;;;;;;;6.30;3.65;;;;;;;4.86;79.41;97666.94;5068346;28;20052;-77
2021/12/13 00:03:14;;;;;;;4.72;3.60;;;;;;;4.86;79.65;97672.09;5064102;28;20049;-77
2021/12/13 00:05:46;;;;;;;7.93;4.22;;;;;;;4.85;79.79;97667.03;5056975;28;20048;-77
2021/12/13 00:08:19;;;;;;;8.38;4.68;;;;;;;4.83;79.96;97658.56;5056860;28;20056;-76
2021/12/13 00:10:51;;;;;;;5.80;3.75;;;;;;;4.82;80.01;97662.13;5054192;28;20056;-77
2021/12/13 00:13:22;;;;;;;6.43;4.38;;;;;;;4.83;79.99;97658.56;5054548;28;20079;-76
2021/12/13 00:15:56;;;;;;;5.57;4.35;;;;;;;4.81;80.21;97661.31;5054690;28;20052;-77
2021/12/13 00:18:29;;;;;;;6.28;4.65;;;;;;;4.80;79.84;97657.06;5054780;28;20419;-77
2021/12/13 00:21:07;;;;;;;4.97;3.88;;;;;;;4.79;80.35;97657.16;5054353;28;20064;-76
2021/12/13 00:23:44;;;;;;;6.38;3.45;;;;;;;4.79;80.50;97655.44;5053219;28;20052;-76
2021/12/13 00:26:22;;;;;;;5.47;3.70;;;;;;;4.80;80.41;97654.47;5053947;28;20052;-76
2021/12/13 00:28:49;;;;;;;5.05;4.10;;;;;;;4.81;80.07;97660.47;5052794;28;20056;-76
2021/12/13 00:31:32;;;;;;;4.25;3.80;;;;;;;4.83;81.09;97659.41;5052798;28;20320;-76
2021/12/13 00:34:22;;;;;;;6.47;3.92;;;;;;;4.86;80.62;97661.75;5054094;28;20053;-76
2021/12/13 00:36:53;;;;;;;5.57;3.75;;;;;;;4.89;80.33;97663.28;5053830;28;20045;-76
2021/12/13 00:39:26;;;;;;;4.65;4.15;;;;;;;4.90;80.42;97670.91;5054306;28;20053;-76
2021/12/13 00:41:55;;;;;;;6.40;4.28;;;;;;;4.90;80.55;97668.34;5053763;28;20049;-77
2021/12/13 00:44:25;;;;;;;4.97;4.10;;;;;;;4.92;80.44;97671.63;5053856;28;20064;-77
2021/12/13 00:46:56;;;;;;;8.68;4.82;;;;;;;4.94;80.52;97676.66;5051892;28;20072;-76
2021/12/13 00:49:29;;;;;;;6.10;4.57;;;;;;;4.93;80.55;97670.66;5053772;28;20049;-77
2021/12/13 00:51:58;;;;;;;5.70;4.68;;;;;;;4.92;80.85;97679.38;5053502;28;20059;-76
2021/12/13 00:54:32;;;;;;;5.82;4.25;;;;;;;4.92;80.99;97674.22;5052925;28;20525;-77
2021/12/13 00:57:17;;;;;;;6.50;3.75;;;;;;;4.93;81.10;97681.00;5052899;28;20049;-76
2021/12/13 00:59:48;;;;;;;5.68;4.20;;;;;;;4.93;81.00;97683.59;5052697;28;20052;-76
2021/12/13 01:02:20;;;;;;;5.93;4.40;;;;;;;4.94;80.94;97689.56;5052978;28;20056;-76
2021/12/13 01:04:59;;;;;;;4.17;3.77;;;;;;;4.94;81.62;97693.00;5053238;28;20049;-76
2021/12/13 01:07:59;;;;;;;4.60;3.97;;;;;;;4.97;81.53;97684.19;5052482;28;20533;-77
2021/12/13 01:11:03;;;;;;;6.13;4.20;;;;;;;4.99;81.17;97689.25;5052811;28;20056;-76
2021/12/13 01:13:35;;;;;;;4.93;3.85;;;;;;;4.97;81.06;97691.13;5052929;28;20494;-76
2021/12/13 01:16:15;;;;;;;5.88;4.05;;;;;;;4.95;80.99;97686.06;5052514;28;20041;-76
2021/12/13 01:18:59;;;;;;;4.30;3.70;;;;;;;4.95;81.14;97688.66;5052776;28;20048;-76
2021/12/13 01:21:38;;;;;;;6.32;4.50;;;;;;;4.97;80.99;97688.53;5052769;28;20057;-76
2021/12/13 01:24:12;;;;;;;4.50;3.83;;;;;;;4.97;81.28;97688.53;5052707;28;20339;-76
2021/12/13 01:26:46;;;;;;;4.82;4.32;;;;;;;5.00;81.52;97690.88;5052120;28;20544;-77
2021/12/13 01:29:16;;;;;;;4.88;3.97;;;;;;;5.02;81.11;97686.41;5052606;28;20491;-76
2021/12/13 01:31:47;;;;;;;7.40;4.50;;;;;;;5.05;80.94;97683.56;5052428;28;20068;-76
2021/12/13 01:34:16;;;;;;;5.00;4.35;;;;;;;5.05;81.23;97688.75;5051912;28;20435;-76
2021/12/13 01:36:56;;;;;;;4.97;4.47;;;;;;;5.05;80.98;97688.75;5052120;28;20051;-76
2021/12/13 01:39:26;;;;;;;5.57;3.88;;;;;;;5.03;81.11;97690.63;5052288;28;20053;-76
2021/12/13 01:41:59;;;;;;;5.38;4.25;;;;;;;5.04;81.82;97689.69;5052410;28;20052;-77
2021/12/13 01:44:30;;;;;;;4.97;4.10;;;;;;;5.06;81.53;97685.22;5052221;28;20525;-76
2021/12/13 01:47:02;;;;;;;5.15;3.88;;;;;;;5.07;81.60;97692.03;5051872;28;20056;-76
2021/12/13 01:49:33;;;;;;;3.92;3.53;;;;;;;5.08;81.56;97688.53;5052184;28;20053;-76
2021/12/13 01:52:01;;;;;;;4.43;3.97;;;;;;;5.11;81.32;97693.44;5052864;28;20049;-76
2021/12/13 01:54:29;;;;;;;4.68;3.85;;;;;;;5.11;81.37;97696.03;5053134;28;20771;-76
2021/12/13 01:57:23;;;;;;;6.00;4.20;;;;;;;5.08;81.14;97691.09;5051722;28;20466;-76
2021/12/13 01:59:56;;;;;;;5.93;3.75;;;;;;;5.08;81.56;97693.69;5051953;28;20049;-76
2021/12/13 02:02:28;;;;;;;3.83;3.22;;;;;;;5.09;81.40;97690.16;5052102;28;20100;-76
2021/12/13 02:05:08;;;;;;;4.60;4.10;;;;;;;5.10;81.18;97691.81;5052127;28;20128;-77
2021/12/13 02:07:43;;;;;;;3.85;3.45;;;;;;;5.10;81.35;97696.97;5051802;28;20422;-76
2021/12/13 02:10:15;;;;;;;4.03;3.40;;;;;;;5.09;81.74;97693.56;5052042;28;20418;-76
2021/12/13 02:12:46;;;;;;;3.80;3.45;;;;;;;5.09;81.77;97692.75;5051965;28;20048;-76
2021/12/13 02:18:02;;;;;;;5.35;3.90;;;;;;;5.11;81.73;97698.63;5051555;28;20056;-76
2021/12/13 02:20:35;;;;;;;4.45;3.88;;;;;;;5.13;81.92;97691.56;5052762;28;20056;-76
2021/12/13 02:23:06;;;;;;;3.97;3.65;;;;;;;5.13;81.83;97686.38;5051939;28;20088;-77
2021/12/13 02:25:36;;;;;;;4.57;3.63;;;;;;;5.12;81.45;97685.56;5052445;28;20400;-76
2021/12/13 02:28:09;;;;;;;4.30;3.90;;;;;;;5.10;81.73;97684.06;5051616;28;20045;-76
2021/12/13 02:30:42;;;;;;;5.65;4.10;;;;;;;5.08;81.55;97691.09;5051679;28;20048;-77
2021/12/13 02:33:14;;;;;;;4.28;3.88;;;;;;;5.07;81.93;97692.03;5051807;28;20052;-76
2021/12/13 02:35:45;;;;;;;4.53;3.70;;;;;;;5.06;81.89;97693.81;5051727;28;20052;-76
2021/12/13 02:38:16;;;;;;;4.00;3.60;;;;;;;5.07;82.09;97692.03;5051744;28;20041;-76
2021/12/13 02:40:44;;;;;;;3.70;2.88;;;;;;;5.10;82.24;97689.22;5051688;28;20049;-76
2021/12/13 02:43:16;;;;;;;3.80;3.35;;;;;;;5.13;81.67;97696.72;5051778;28;20056;-76
2021/12/13 02:45:48;;;;;;;4.70;3.33;;;;;;;5.16;81.79;97704.28;5054786;28;20414;-77
2021/12/13 02:48:21;;;;;;;4.15;3.70;;;;;;;5.17;81.53;97705.91;5055824;28;20470;-76
2021/12/13 02:50:56;;;;;;;3.33;3.03;;;;;;;5.19;81.71;97701.44;5055649;28;20114;-76
2021/12/13 02:53:29;;;;;;;3.80;3.38;;;;;;;5.20;81.46;97705.66;5055837;28;20049;-76
2021/12/13 02:55:57;;;;;;;4.38;3.97;;;;;;;5.21;81.65;97699.53;5055144;28;20186;-76
2021/12/13 02:58:27;;;;;;;3.67;3.38;;;;;;;5.20;82.03;97697.06;5055245;28;20055;-76
2021/12/13 03:01:02;;;;;;;4.40;4.00;;;;;;;5.19;81.95;97701.44;5055177;28;20525;-76
2021/12/13 03:03:37;;;;;;;4.38;3.95;;;;;;;5.20;81.79;97705.66;5055528;28;20052;-77
2021/12/13 03:06:09;;;;;;;3.92;3.55;;;;;;;5.22;81.97;97701.19;5054964;28;20415;-76
2021/12/13 03:08:43;;;;;;;4.90;3.83;;;;;;;5.23;82.13;97696.84;5054976;28;20049;-76
2021/12/13 03:11:21;;;;;;;4.07;3.55;;;;;;;5.22;81.95;97698.59;5055291;28;20060;-76
2021/12/13 03:13:53;;;;;;;3.97;3.60;;;;;;;5.20;81.83;97697.88;5055182;28;20059;-76
2021/12/13 03:16:27;;;;;;;3.53;3.23;;;;;;;5.18;82.07;97696.38;5054917;28;20053;-76
2021/12/13 03:19:00;;;;;;;3.45;3.15;;;;;;;5.16;81.95;97699.91;5054916;28;20413;-76
2021/12/13 03:22:03;;;;;;;4.15;3.60;;;;;;;5.15;82.25;97700.03;5054815;28;20522;-78
2021/12/13 03:25:02;;;;;;;4.10;3.70;;;;;;;5.13;82.68;97694.97;5055049;28;20059;-76
2021/12/13 03:27:38;;;;;;;3.63;3.15;;;;;;;5.14;82.30;97699.22;5054540;28;20049;-76
2021/12/13 03:30:09;;;;;;;3.30;3.00;;;;;;;5.15;82.40;97695.66;5054613;28;20053;-76
2021/12/13 03:32:54;;;;;;;4.10;3.53;;;;;;;5.16;82.37;97699.09;5054912;28;20430;-76
2021/12/13 03:35:31;;;;;;;3.92;3.58;;;;;;;5.16;82.59;97701.69;5054804;28;20067;-76
2021/12/13 03:38:02;;;;;;;3.63;3.33;;;;;;;5.16;82.57;97699.09;5054403;28;20041;-76
2021/12/13 03:40:32;;;;;;;3.95;3.40;;;;;;;5.15;82.51;97700.03;5054568;28;20056;-77
2021/12/13 03:43:06;;;;;;;4.35;3.60;;;;;;;5.15;82.14;97700.03;5054752;28;20053;-76
2021/12/13 03:45:39;;;;;;;4.00;3.10;;;;;;;5.15;82.47;97697.44;5054543;28;20107;-76
2021/12/13 03:48:09;;;;;;;3.45;3.00;;;;;;;5.15;82.68;97693.06;5054279;28;20490;-77
2021/12/13 03:50:40;;;;;;;3.92;2.95;;;;;;;5.17;82.52;97695.56;5054512;28;20049;-76
2021/12/13 03:53:11;;;;;;;3.30;2.92;;;;;;;5.15;82.73;97694.84;5054623;28;20052;-76
2021/12/13 03:55:43;;;;;;;3.75;3.35;;;;;;;5.16;82.85;97696.50;5054430;28;20056;-76
2021/12/13 03:58:13;;;;;;;3.92;3.58;;;;;;;5.16;82.70;97697.31;5054026;28;20060;-76
2021/12/13 04:00:45;;;;;;;5.22;4.10;;;;;;;5.15;82.67;97703.44;5054169;28;20064;-76
2021/12/13 04:03:15;;;;;;;3.42;3.13;;;;;;;5.17;82.90;97700.72;5054624;28;20422;-76
2021/12/13 04:05:44;;;;;;;2.92;2.63;;;;;;;5.21;82.86;97701.31;5054364;28;20427;-77
2021/12/13 04:08:13;;;;;;;3.28;2.90;;;;;;;5.20;82.44;97697.88;5054070;28;20056;-76
2021/12/13 04:10:45;;;;;;;5.07;2.97;;;;;;;5.20;82.45;97703.06;5054429;28;20140;-77
2021/12/13 04:13:16;;;;;;;3.72;3.17;;;;;;;5.21;82.61;97703.91;5054367;28;20060;-76
2021/12/13 04:15:59;;;;;;;3.58;3.25;;;;;;;5.20;82.80;97697.06;5054429;28;20049;-76
2021/12/13 04:18:40;;;;;;;;;;;;;;;5.25;83.40;97706.13;5054750;28;20495;-76
2021/12/13 04:21:09;;;;;;;3.42;3.13;;;;;;;5.24;82.57;97709.63;5054534;28;20370;-77
2021/12/13 04:23:38;;;;;;;4.63;2.83;;;;;;;5.25;82.45;97715.66;5054567;28;20049;-77
2021/12/13 04:26:10;;;;;;;4.63;3.08;;;;;;;5.24;82.95;97717.41;5054140;28;20049;-76
2021/12/13 04:28:41;;;;;;;5.88;3.30;;;;;;;5.24;82.86;97712.22;5054350;28;20490;-76
2021/12/13 04:31:14;;;;;;;3.92;3.53;;;;;;;5.26;82.94;97717.28;5087986;22;20045;-75
2021/12/13 04:33:44;;;;;;;3.80;3.28;;;;;;;5.27;83.12;97726.69;5073627;28;20143;-75
2021/12/13 04:36:16;;;;;;;3.55;3.20;;;;;;;5.29;83.22;97719.63;5073444;28;20051;-75
2021/12/13 04:38:50;;;;;;;3.40;3.10;;;;;;;5.31;82.74;97726.34;5073704;28;20051;-75
2021/12/13 04:41:26;;;;;;;7.55;5.22;;;;;;;5.31;82.88;97726.34;5073466;28;20059;-75
2021/12/13 04:44:00;;;;;;;6.88;5.05;;;;;;;5.31;83.15;97726.34;5073892;28;20060;-75
2021/12/13 04:46:31;;;;;;;8.10;5.03;;;;;;;5.31;83.02;97728.94;5073157;28;20075;-75
2021/12/13 04:49:03;;;;;;;4.95;4.10;;;;;;;5.33;83.36;97739.13;5073415;28;20472;-75
2021/12/13 04:51:42;;;;;;;6.78;4.57;;;;;;;5.35;83.13;97730.31;5073144;28;20114;-74
2021/12/13 04:54:12;;;;;;;7.03;5.10;;;;;;;5.32;83.01;97735.75;5073279;28;20052;-75
2021/12/13 04:56:43;;;;;;;6.72;4.32;;;;;;;5.32;82.94;97738.31;5073045;28;20045;-75
2021/12/13 04:59:13;;;;;;;5.45;3.95;;;;;;;5.31;83.59;97739.28;5073438;28;20082;-75
2021/12/13 05:01:43;;;;;;;6.53;4.45;;;;;;;5.34;83.41;97738.22;5073070;28;20060;-75
2021/12/13 05:04:11;;;;;;;6.72;4.40;;;;;;;5.36;83.49;97739.72;5073092;28;20049;-75
2021/12/13 05:06:41;;;;;;;4.25;3.85;;;;;;;5.40;82.93;97736.88;5072687;28;20067;-75
2021/12/13 05:09:12;;;;;;;8.55;5.45;;;;;;;5.43;83.07;97739.25;5071869;28;20468;-75
2021/12/13 05:11:46;;;;;;;5.70;4.25;;;;;;;5.46;82.92;97739.81;5088171;28;20052;-75
2021/12/13 05:14:14;;;;;;;7.18;4.72;;;;;;;5.51;82.42;97744.63;5089095;28;20082;-74
2021/12/13 05:16:44;;;;;;;5.72;4.60;;;;;;;5.52;82.76;97741.09;5080629;28;20460;-75
2021/12/13 05:19:15;;;;;;;6.70;5.00;;;;;;;5.52;83.01;97743.69;5073593;28;20059;-75
2021/12/13 05:21:47;;;;;;;5.10;4.60;;;;;;;5.54;82.79;97744.41;5073856;28;20056;-75
2021/12/13 05:24:18;;;;;;;8.02;6.00;;;;;;;5.55;82.87;97740.84;5081250;28;20053;-75
2021/12/13 05:26:53;;;;;;;6.80;5.20;;;;;;;5.55;82.97;97746.03;5087777;28;20494;-75
2021/12/13 05:29:24;;;;;;;5.15;4.50;;;;;;;5.58;82.63;97753.56;5077132;28;20055;-75
2021/12/13 05:31:53;;;;;;;5.15;4.65;;;;;;;5.59;82.76;97750.03;5073392;28;20049;-75
2021/12/13 05:34:21;;;;;;;7.90;5.70;;;;;;;5.58;82.88;97756.16;5072808;28;20150;-75
2021/12/13 05:36:56;;;;;;;6.57;4.75;;;;;;;5.61;82.64;97760.25;5073108;28;20048;-75
2021/12/13 05:39:24;;;;;;;5.65;4.82;;;;;;;5.63;82.81;97754.00;5073104;28;20047;-75
2021/12/13 05:41:55;;;;;;;6.70;5.28;;;;;;;5.65;82.32;97754.72;5073053;28;20053;-75
2021/12/13 05:44:25;;;;;;;6.22;4.70;;;;;;;5.64;82.38;97758.25;5073307;28;20410;-75
2021/12/13 05:46:54;;;;;;;4.80;4.00;;;;;;;5.63;82.63;97766.94;5072732;28;20056;-75
2021/12/13 05:49:25;;;;;;;4.93;3.45;;;;;;;5.62;82.92;97770.50;5073091;28;20048;-75
2021/12/13 05:51:55;;;;;;;4.55;3.85;;;;;;;5.59;82.90;97770.72;5073258;28;20048;-75
2021/12/13 05:54:26;;;;;;;7.43;4.88;;;;;;;5.58;83.04;97780.25;5072781;28;20056;-75
2021/12/13 05:57:00;;;;;;;13.60;9.20;;;;;;;5.58;83.01;97784.63;5061587;28;20049;-75
2021/12/13 05:59:31;;;;;;;9.02;6.38;;;;;;;5.60;83.08;97785.31;5055561;28;20414;-75
2021/12/13 06:02:12;;;;;;;6.40;4.60;;;;;;;5.62;82.99;97783.44;5072603;28;20056;-75
2021/12/13 06:04:45;;;;;;;5.47;4.07;;;;;;;5.63;82.46;97779.91;5061133;28;20045;-75
2021/12/13 06:07:21;;;;;;;5.95;4.65;;;;;;;5.66;82.63;97786.59;5053764;28;20045;-75
2021/12/13 06:09:54;;;;;;;3.78;3.38;;;;;;;5.65;83.28;97785.78;5052555;28;20063;-75
2021/12/13 06:12:32;;;;;;;4.38;3.97;;;;;;;5.66;82.98;97791.78;5065634;28;20045;-74
2021/12/13 06:15:20;;;;;;;3.60;3.28;;;;;;;5.68;82.51;97797.66;5093832;28;20036;-75
2021/12/13 06:17:53;;;;;;;4.00;3.60;;;;;;;5.69;82.33;97802.72;5083255;28;20059;-75
2021/12/13 06:20:23;;;;;;;3.40;3.05;;;;;;;5.70;82.53;97796.56;5074931;28;20053;-75
2021/12/13 06:22:51;;;;;;;5.70;3.83;;;;;;;5.72;82.25;97805.03;5076493;28;20040;-75
2021/12/13 06:25:22;;;;;;;4.25;3.85;;;;;;;5.73;82.15;97804.13;5093132;28;20045;-74
2021/12/13 06:27:54;;;;;;;4.70;4.30;;;;;;;5.73;82.31;97809.31;5087490;28;20052;-74
2021/12/13 06:30:24;;;;;;;4.93;4.25;;;;;;;5.74;82.43;97810.13;5063209;28;20041;-75
2021/12/13 06:32:54;;;;;;;4.68;4.00;;;;;;;5.73;82.79;97809.31;5056213;28;20057;-74
2021/12/13 06:35:44;;;;;;;4.72;4.22;;;;;;;5.74;82.95;97800.56;5055670;28;20656;-75
2021/12/13 06:38:46;;;;;;;5.25;3.90;;;;;;;5.72;82.81;97807.63;5050985;28;20049;-75
2021/12/13 06:41:36;;;;;;;3.22;2.97;;;;;;;5.69;83.20;97805.31;5013559;28;20511;-75
2021/12/13 06:44:08;;;;;;;4.80;3.85;;;;;;;5.67;82.96;97802.00;5056311;28;20399;-75
2021/12/13 06:46:42;;;;;;;7.57;4.95;;;;;;;5.66;82.91;97800.34;5055695;28;20056;-76
2021/12/13 06:49:15;;;;;;;4.63;3.83;;;;;;;5.65;82.99;97800.50;5055648;28;20100;-76
2021/12/13 06:51:47;;;;;;;8.90;4.72;;;;;;;5.63;83.25;97802.38;5055752;28;20387;-75
2021/12/13 06:54:18;;;;;;;4.95;4.43;;;;;;;5.61;83.37;97799.09;5055901;28;20060;-76
2021/12/13 06:56:53;;;;;;;5.18;4.20;;;;;;;5.62;83.74;97804.16;5055348;28;20053;-75
2021/12/13 06:59:22;;;;;;;4.07;3.45;;;;;;;5.63;83.34;97795.44;5055281;28;20521;-76
2021/12/13 07:02:12;;;;;;;4.43;4.03;;;;;;;5.64;83.87;97788.47;5055408;28;20079;-76
2021/12/13 07:04:51;;;;;;;6.53;4.70;;;;;;;5.61;83.72;97794.72;5064229;28;20525;-76
2021/12/13 07:10:10;;;;;;;9.23;7.18;;;;;;;5.64;83.48;97793.66;5550195;22;20428;-74
2021/12/13 07:12:45;;;;;;;9.18;7.28;;;;;;;5.63;83.40;97798.00;4994298;28;20054;-74
2021/12/13 07:15:25;;;;;;;8.85;6.20;;;;;;;5.62;83.66;97798.97;4990259;28;20050;-75
2021/12/13 07:18:03;;;;;;;11.73;9.48;;;;;;;5.62;83.55;97804.16;4995290;28;20600;-75
2021/12/13 07:20:37;;;;;;;12.15;9.35;;;;;;;5.65;83.92;97806.47;4995332;28;20051;-75
2021/12/13 07:23:05;;;;;;;9.98;8.20;;;;;;;5.72;83.68;97810.22;4995568;28;20051;-75
2021/12/13 07:25:37;;;;;;;12.50;8.95;;;;;;;5.78;83.97;97801.97;4995406;28;20066;-75
2021/12/13 07:28:07;;;;;;;10.85;8.25;;;;;;;5.86;84.16;97800.53;4995315;28;20065;-75
2021/12/13 07:30:38;;;;;;;12.20;8.98;;;;;;;5.93;83.89;97809.47;4994984;28;20046;-76
2021/12/13 07:33:07;;;;;;;12.30;8.23;;;;;;;6.00;83.63;97813.25;4994648;28;20050;-76
2021/12/13 07:35:40;;;;;;;13.35;8.48;;;;;;;6.06;83.39;97817.94;4995418;28;20054;-76
2021/12/13 07:38:09;;;;;;;11.45;8.07;;;;;;;6.11;83.32;97818.38;4995440;28;20053;-76
2021/12/13 07:40:41;;;;;;;9.07;6.75;;;;;;;6.14;82.81;97818.16;4994800;28;20050;-75
2021/12/13 07:43:17;;;;;;;6.80;5.60;;;;;;;6.21;82.74;97825.41;4995390;28;20046;-76
2021/12/13 07:45:53;;;;;;;7.70;5.05;;;;;;;6.25;82.88;97816.44;4995809;28;20065;-75
2021/12/13 07:48:24;;;;;;;5.93;4.35;;;;;;;6.29;82.25;97825.63;4995504;28;20471;-76
2021/12/13 07:51:11;;;;;;;6.32;4.95;;;;;;;6.34;82.29;97819.13;4994999;28;20054;-75
2021/12/13 07:53:44;;;;;;;5.07;3.78;;;;;;;6.40;82.22;97823.78;4995224;28;20051;-76
2021/12/13 07:56:20;;;;;;;6.65;4.15;;;;;;;6.45;81.86;97823.44;4995716;28;20046;-76
2021/12/13 07:58:50;;;;;;;5.78;4.07;;;;;;;6.47;81.41;97826.72;4995242;28;20055;-75
2021/12/13 08:01:21;;;;;;;5.95;4.25;;;;;;;6.47;81.33;97821.53;4994855;28;20046;-75
2021/12/13 08:03:55;;;;;;;5.55;4.00;;;;;;;6.48;81.49;97828.34;4995103;28;20089;-74
2021/12/13 08:06:26;;;;;;;4.15;3.38;;;;;;;6.51;81.33;97830.69;4992365;28;20065;-74
2021/12/13 08:08:59;;;;;;;4.40;3.72;;;;;;;6.52;81.52;97837.53;4992331;28;20053;-75
2021/12/13 08:11:34;;;;;;;;;;;;;;;6.58;81.65;97836.19;4996851;28;20058;-74
2021/12/13 08:14:02;;;;;;;5.30;3.78;;;;;;;6.59;81.34;97833.47;4998642;28;19922;-74
2021/12/13 08:16:35;;;;;;;3.60;3.17;;;;;;;6.60;80.78;97829.94;4998184;28;20057;-74
2021/12/13 08:19:10;;;;;;;3.38;2.95;;;;;;;6.60;80.75;97840.31;4995816;28;20054;-75
2021/12/13 08:21:41;;;;;;;2.80;2.50;;;;;;;6.63;80.75;97843.63;4994598;28;20062;-75
2021/12/13 08:24:18;;;;;;;3.30;2.85;;;;;;;6.68;80.54;97838.88;4994643;28;20066;-75
2021/12/13 08:26:46;;;;;;;3.85;2.60;;;;;;;6.75;80.76;97832.22;4994084;28;20054;-75
2021/12/13 08:29:18;;;;;;;4.68;4.13;;;;;;;6.79;79.98;97842.19;4991246;28;20046;-74
2021/12/13 08:31:51;;;;;;;3.80;3.50;;;;;;;6.77;79.77;97840.69;4993936;28;20419;-75
2021/12/13 08:34:26;;;;;;;3.50;2.83;;;;;;;6.70;79.68;97840.38;4994070;28;20054;-75
2021/12/13 08:36:54;;;;;;;3.22;2.95;;;;;;;6.67;79.77;97834.59;4994062;28;20047;-75
2021/12/13 08:39:25;;;;;;;3.25;2.95;;;;;;;6.63;79.66;97846.22;4994093;28;20463;-74
2021/12/13 08:41:58;;;;;;;4.05;3.20;;;;;;;6.56;79.78;97838.13;4994223;28;20054;-75
2021/12/13 08:44:27;;;;;;;;;;;;;;;6.57;79.94;97837.97;4994831;28;20053;-74
2021/12/13 08:47:01;;;;;;;5.20;4.22;;;;;;;6.52;79.94;97840.13;4994511;28;19928;-74
2021/12/13 08:49:33;;;;;;;;;;;;;;;6.51;80.11;97840.25;4994874;28;20073;-74
2021/12/13 08:52:09;;;;;;;7.85;4.50;;;;;;;6.45;80.13;97836.41;4994354;28;20394;-74
2021/12/13 08:54:45;;;;;;;8.15;5.32;;;;;;;6.42;80.44;97835.81;4994089;28;20061;-75
2021/12/13 08:57:29;;;;;;;6.20;4.80;;;;;;;6.41;80.82;97840.19;4993816;28;20050;-75
2021/12/13 08:59:59;;;;;;;6.40;4.25;;;;;;;6.44;80.92;97837.31;4993594;28;20050;-75
2021/12/13 09:02:30;;;;;;;10.43;5.90;;;;;;;6.45;80.98;97843.31;5000074;28;20044;-74
2021/12/13 09:05:02;;;;;;;8.35;5.28;;;;;;;6.46;81.04;97845.00;5014714;28;20074;-74
2021/12/13 09:07:30;;;;;;;8.00;5.83;;;;;;;6.45;80.54;97846.75;5013382;28;20039;-74
2021/12/13 09:09:58;;;;;;;7.28;4.60;;;;;;;6.46;81.32;97843.22;5007328;28;20330;-74
2021/12/13 09:12:31;;;;;;;6.93;4.68;;;;;;;6.50;81.35;97844.59;4993665;28;20073;-73
2021/12/13 09:15:02;;;;;;;6.75;4.18;;;;;;;6.53;81.30;97839.16;4993632;28;20050;-75
2021/12/13 09:17:37;;;;;;;6.78;5.05;;;;;;;6.60;81.22;97845.50;4993351;28;20058;-75
2021/12/13 09:20:13;;;;;;;9.00;5.63;;;;;;;6.65;81.18;97845.13;4993245;28;20050;-75
2021/12/13 09:22:44;;;;;;;8.20;5.90;;;;;;;6.66;81.38;97853.72;4993649;28;20050;-75
2021/12/13 09:25:15;;;;;;;6.82;6.00;;;;;;;6.67;81.17;97857.94;4993851;28;20053;-75
2021/12/13 09:27:49;;;;;;;8.52;5.82;;;;;;;6.67;81.33;97863.97;5002316;28;20057;-74
2021/12/13 09:30:26;;;;;;;9.35;6.35;;;;;;;6.68;81.42;97857.00;5015789;28;20050;-74
2021/12/13 09:32:58;;;;;;;7.68;5.40;;;;;;;6.72;81.36;97858.41;5010631;28;20083;-74
2021/12/13 09:35:37;;;;;;;11.80;7.50;;;;;;;6.79;81.43;97860.34;4994578;28;20504;-75
2021/12/13 09:38:23;;;;;;;10.05;7.60;;;;;;;6.83;81.57;97866.13;4993023;28;20288;-75
2021/12/13 09:40:55;;;;;;;8.05;6.45;;;;;;;6.84;81.11;97857.38;5009864;28;20046;-75
2021/12/13 09:43:33;;;;;;;7.57;6.10;;;;;;;6.85;80.95;97859.03;5014333;28;20064;-75
2021/12/13 09:46:00;;;;;;;6.30;4.70;;;;;;;6.86;80.69;97863.25;4993362;28;20046;-75
2021/12/13 09:48:32;;;;;;;5.78;4.55;;;;;;;6.86;81.08;97862.44;4992999;28;20146;-75
2021/12/13 09:51:11;;;;;;;10.57;3.85;;;;;;;6.88;80.65;97861.38;4993294;28;20046;-74
2021/12/13 09:53:41;;;;;;;4.35;3.80;;;;;;;6.89;80.91;97859.63;4993026;28;20054;-74
2021/12/13 09:56:15;;;;;;;5.05;4.18;;;;;;;6.92;80.73;97856.75;4992335;28;20074;-75
2021/12/13 09:58:47;;;;;;;8.55;4.85;;;;;;;6.94;80.86;97857.44;4992404;28;20054;-75
2021/12/13 10:01:18;;;;;;;4.93;4.13;;;;;;;6.94;80.84;97850.47;4992458;28;20125;-74
2021/12/13 10:03:54;;;;;;;6.13;4.80;;;;;;;6.94;81.18;97847.88;4992941;28;20050;-74
2021/12/13 10:06:25;;;;;;;5.68;5.07;;;;;;;6.95;81.04;97852.16;4992518;28;20050;-74
2021/12/13 10:08:58;;;;;;;6.20;4.40;;;;;;;6.95;81.16;97849.56;4978088;28;20062;-75
2021/12/13 10:11:30;;;;;;;6.43;5.25;;;;;;;6.96;81.07;97846.00;4973093;28;20066;-74
2021/12/13 10:13:59;;;;;;;6.05;4.22;;;;;;;6.97;81.17;97842.44;4974091;28;20047;-74
2021/12/13 10:16:31;;;;;;;6.15;5.00;;;;;;;6.99;80.82;97840.53;4974846;28;20055;-75
2021/12/13 10:19:02;;;;;;;7.88;5.45;;;;;;;7.01;81.02;97841.22;4973737;28;20097;-75
2021/12/13 10:21:33;;;;;;;7.50;5.65;;;;;;;7.05;80.85;97828.84;4977698;28;20050;-74
2021/12/13 10:24:05;;;;;;;5.45;4.82;;;;;;;7.10;80.65;97836.22;4992383;28;20050;-74
2021/12/13 10:26:38;;;;;;;5.90;4.82;;;;;;;7.13;80.42;97830.78;4992699;28;20050;-74
2021/12/13 10:29:10;;;;;;;9.93;7.05;;;;;;;7.16;80.28;97840.91;4992616;28;20069;-75
2021/12/13 10:31:45;;;;;;;11.32;6.85;;;;;;;7.17;80.44;97834.75;5026684;23;20577;-76
2021/12/13 10:34:16;;;;;;;7.80;5.85;;;;;;;7.19;80.37;97830.25;5032947;28;20601;-76
2021/12/13 10:36:47;;;;;;;10.05;5.22;;;;;;;7.19;80.17;97833.69;5032032;28;20049;-76
2021/12/13 10:39:18;;;;;;;16.98;6.65;;;;;;;7.20;80.29;97831.91;5032028;28;20522;-76
2021/12/13 10:42:03;;;;;;;11.70;6.10;;;;;;;7.21;80.38;97828.34;5015540;28;20052;-75
2021/12/13 10:44:30;;;;;;;10.35;6.40;;;;;;;7.22;80.20;97830.81;5011902;28;20079;-76
2021/12/13 10:47:05;;;;;;;12.32;5.93;;;;;;;7.24;79.88;97828.09;5011369;28;20054;-76
2021/12/13 10:49:38;;;;;;;7.85;5.15;;;;;;;7.26;80.01;97825.34;5012044;28;20053;-77
2021/12/13 10:52:11;;;;;;;6.78;5.30;;;;;;;7.29;79.98;97825.13;5012005;28;20425;-75
2021/12/13 10:54:40;;;;;;;;;;;;;;;7.32;79.75;97830.03;5012618;28;20049;-75
2021/12/13 10:57:11;;;;;;;7.90;5.72;;;;;;;7.31;80.02;97825.81;5012345;28;19925;-76
2021/12/13 10:59:43;;;;;;;5.07;4.57;;;;;;;7.30;80.29;97819.78;5012636;28;20671;-76
2021/12/13 11:02:16;;;;;;;6.68;5.78;;;;;;;7.30;80.29;97812.00;5012393;28;20053;-75
2021/12/13 11:04:48;;;;;;;6.93;5.70;;;;;;;7.32;80.34;97815.28;5012368;28;20053;-76
2021/12/13 11:07:16;;;;;;;6.88;6.03;;;;;;;7.32;80.22;97823.06;5015150;28;20050;-76
2021/12/13 11:09:46;;;;;;;7.43;6.03;;;;;;;7.33;80.40;97821.31;5012346;28;20050;-76
2021/12/13 11:12:17;;;;;;;8.95;6.70;;;;;;;7.31;80.44;97815.44;5008814;28;20411;-76
2021/12/13 11:14:48;;;;;;;7.28;6.10;;;;;;;7.34;80.18;97821.16;5015017;28;20061;-76
2021/12/13 11:17:20;;;;;;;8.10;7.03;;;;;;;7.36;80.29;97821.03;5014797;28;20065;-76
2021/12/13 11:19:52;;;;;;;9.30;7.83;;;;;;;7.38;80.03;97809.56;5014640;28;20050;-76
2021/12/13 11:22:24;;;;;;;9.45;7.72;;;;;;;7.41;79.96;97808.47;5006108;28;20700;-76
2021/12/13 11:24:54;;;;;;;8.48;7.68;;;;;;;7.40;80.15;97805.06;4994958;28;20073;-76
2021/12/13 11:27:26;;;;;;;8.65;7.20;;;;;;;7.42;80.25;97803.16;4995899;28;20385;-76
2021/12/13 11:29:55;;;;;;;8.50;7.13;;;;;;;7.47;79.90;97807.13;4995721;28;20053;-76
2021/12/13 11:32:52;;;;;;;7.70;6.82;;;;;;;7.51;80.03;97811.94;4995353;28;20046;-76
2021/12/13 11:36:13;;;;;;;8.02;7.03;;;;;;;7.55;79.96;97809.91;4995525;28;20053;-76
2021/12/13 11:39:07;;;;;;;6.85;6.05;;;;;;;7.58;79.81;97809.63;4995106;28;20061;-76
2021/12/13 11:41:57;;;;;;;7.43;6.60;;;;;;;7.59;80.05;97806.09;4995136;28;20046;-75
2021/12/13 11:44:45;;;;;;;7.78;6.97;;;;;;;7.59;79.95;97806.09;5001933;28;20046;-75
2021/12/13 11:47:43;;;;;;;6.70;6.00;;;;;;;7.60;79.81;97800.75;5014313;28;20096;-76
2021/12/13 11:50:43;;;;;;;6.78;5.93;;;;;;;7.62;79.87;97796.22;5014866;28;20054;-75
2021/12/13 11:53:42;;;;;;;7.03;6.18;;;;;;;7.62;79.68;97790.22;5015486;28;20050;-77
2021/12/13 11:56:37;;;;;;;8.68;6.13;;;;;;;7.63;79.92;97791.84;5014125;28;20551;-76
2021/12/13 11:59:20;;;;;;;7.90;7.00;;;;;;;7.64;79.91;97788.31;5014569;28;20124;-75
2021/12/13 12:01:52;;;;;;;;;;;;;;;7.67;80.26;97785.44;5014462;28;20491;-76
2021/12/13 12:05:07;;;;;;;7.75;6.05;;;;;;;7.67;79.61;97780.25;5014978;28;19928;-77
2021/12/13 12:07:55;;;;;;;7.40;6.40;;;;;;;7.71;79.89;97789.41;5014504;28;20061;-77
2021/12/13 12:11:14;;;;;;;8.65;6.35;;;;;;;7.74;80.28;97776.19;5014259;28;20494;-76
2021/12/13 12:13:52;;;;;;;7.78;6.22;;;;;;;7.76;79.90;97770.81;4934614;29;20047;-76
2021/12/13 12:16:22;;;;;;;8.68;6.72;;;;;;;7.78;79.76;97774.97;4934707;29;20059;-76
2021/12/13 12:18:52;;;;;;;7.97;6.30;;;;;;;7.80;79.51;97765.22;4977440;28;20507;-76
2021/12/13 12:21:54;;;;;;;6.75;5.75;;;;;;;7.86;79.68;97766.47;4994562;28;20523;-76